createdAt,value
2023-04-08T00:01:04.072Z,91795.19
2023-04-08T00:03:30.885Z,91791.69
2023-04-08T00:05:57.583Z,91792.97
2023-04-08T00:08:24.111Z,91792.97
2023-04-08T00:10:50.582Z,91796.97
2023-04-08T00:13:17.101Z,91792.97
2023-04-08T00:15:43.656Z,91792.97
2023-04-08T00:18:10.204Z,91799.19
2023-04-08T00:20:36.822Z,91795.19
2023-04-08T00:23:03.395Z,91794.44
2023-04-08T00:25:31.385Z,91792.97
2023-04-08T00:27:57.755Z,91794.22
2023-04-08T00:30:24.122Z,91792.22
2023-04-08T00:32:50.852Z,91803.94
2023-04-08T00:35:17.542Z,91797.72
2023-04-08T00:37:44.104Z,91790.03
2023-04-08T00:40:11.063Z,91792.78
2023-04-08T00:42:37.647Z,91795.53
2023-04-08T00:45:04.481Z,91798.25
2023-04-08T00:47:31.267Z,91792.78
2023-04-08T00:49:57.973Z,91802.47
2023-04-08T00:52:24.474Z,91801.00
2023-04-08T00:54:50.994Z,91794.03
2023-04-08T00:57:17.547Z,91797.84
2023-04-08T00:59:44.191Z,91796.56
2023-04-08T01:02:13.794Z,91796.56
2023-04-08T01:05:04.101Z,91805.53
2023-04-08T01:07:40.652Z,91796.56
2023-04-08T01:10:17.626Z,91797.13
2023-04-08T01:12:50.182Z,91802.06
2023-04-08T01:15:17.446Z,91803.34
2023-04-08T01:17:46.276Z,91797.66
2023-04-08T01:20:15.122Z,91804.59
2023-04-08T01:22:55.181Z,91803.13
2023-04-08T01:25:32.793Z,91800.19
2023-04-08T01:28:01.933Z,91802.94
2023-04-08T01:30:30.659Z,91794.72
2023-04-08T01:32:59.675Z,91800.19
2023-04-08T01:35:26.573Z,91805.69
2023-04-08T01:37:54.410Z,91800.94
2023-04-08T01:40:21.124Z,91791.78
2023-04-08T01:42:49.724Z,91805.69
2023-04-08T01:45:17.134Z,91799.44
2023-04-08T01:47:47.439Z,91801.47
2023-04-08T01:50:15.778Z,91797.25
2023-04-08T01:52:47.968Z,91798.75
2023-04-08T01:55:14.910Z,91802.94
2023-04-08T01:57:47.807Z,91801.47
2023-04-08T02:00:19.437Z,91801.47
2023-04-08T02:02:47.572Z,91798.75
2023-04-08T02:05:14.919Z,91802.75
2023-04-08T02:07:41.720Z,91798.75
2023-04-08T02:10:08.688Z,91793.25
2023-04-08T02:12:35.263Z,91806.22
2023-04-08T02:15:02.100Z,91801.47
2023-04-08T02:17:52.635Z,91793.25
2023-04-08T02:20:38.127Z,91794.72
2023-04-08T02:23:19.852Z,91804.44
2023-04-08T02:25:48.277Z,91798.94
2023-04-08T02:28:17.802Z,91799.13
2023-04-08T02:30:50.851Z,91802.06
2023-04-08T02:33:22.839Z,91807.00
2023-04-08T02:35:51.470Z,91798.06
2023-04-08T02:38:18.090Z,91800.25
2023-04-08T02:40:44.570Z,91805.53
2023-04-08T02:43:11.141Z,91802.81
2023-04-08T02:45:44.563Z,91806.50
2023-04-08T02:48:11.230Z,91806.50
2023-04-08T02:50:37.861Z,91810.69
2023-04-08T02:53:04.381Z,91800.81
2023-04-08T02:55:31.205Z,91803.53
2023-04-08T02:57:57.710Z,91807.53
2023-04-08T03:00:24.201Z,91806.09
2023-04-08T03:02:50.918Z,91809.38
2023-04-08T03:05:17.746Z,91804.44
2023-04-08T03:07:44.308Z,91801.69
2023-04-08T03:10:11.130Z,91807.16
2023-04-08T03:12:37.831Z,91800.94
2023-04-08T03:15:04.751Z,91807.16
2023-04-08T03:17:34.589Z,91800.94
2023-04-08T03:20:04.723Z,91797.44
2023-04-08T03:22:31.322Z,91800.41
2023-04-08T03:24:57.814Z,91807.16
2023-04-08T03:27:24.584Z,91809.72
2023-04-08T03:29:51.283Z,91809.72
2023-04-08T03:32:17.861Z,91804.75
2023-04-08T03:34:44.509Z,91798.75
2023-04-08T03:37:11.004Z,91806.97
2023-04-08T03:39:38.374Z,91809.72
2023-04-08T03:42:04.898Z,91808.22
2023-04-08T03:44:31.421Z,91808.75
2023-04-08T03:46:57.945Z,91810.75
2023-04-08T03:49:24.439Z,91809.31
2023-04-08T03:51:50.986Z,91800.34
2023-04-08T03:54:17.470Z,91803.81
2023-04-08T03:56:44.009Z,91813.34
2023-04-08T03:59:10.514Z,91803.06
2023-04-08T04:01:37.003Z,91806.34
2023-04-08T04:04:03.774Z,91807.84
2023-04-08T04:06:31.149Z,91804.91
2023-04-08T04:08:57.646Z,91807.66
2023-04-08T04:11:24.113Z,91805.63
2023-04-08T04:13:50.647Z,91817.13
2023-04-08T04:16:17.418Z,91815.88
2023-04-08T04:18:43.996Z,91819.88
2023-04-08T04:21:10.731Z,91819.88
2023-04-08T04:23:37.269Z,91821.34
2023-04-08T04:26:13.107Z,91830.84
2023-04-08T04:28:39.895Z,91832.88
2023-04-08T04:31:06.417Z,91835.59
2023-04-08T04:33:32.997Z,91830.84
2023-04-08T04:35:59.630Z,91832.13
2023-04-08T04:38:27.061Z,91833.59
2023-04-08T04:40:53.586Z,91839.06
2023-04-08T04:43:20.051Z,91838.88
2023-04-08T04:45:46.614Z,91844.34
2023-04-08T04:48:15.667Z,91847.28
2023-04-08T04:50:42.248Z,91843.84
2023-04-08T04:53:08.766Z,91840.16
2023-04-08T04:55:36.411Z,91849.84
2023-04-08T04:58:04.075Z,91838.88
2023-04-08T05:00:30.522Z,91853.84
2023-04-08T05:02:57.061Z,91851.13
2023-04-08T05:05:23.682Z,91854.59
2023-04-08T05:07:50.351Z,91859.34
2023-04-08T05:10:16.851Z,91859.34
2023-04-08T05:12:43.397Z,91857.88
2023-04-08T05:15:10.366Z,91859.34
2023-04-08T05:17:36.870Z,91858.59
2023-04-08T05:20:03.855Z,91857.88
2023-04-08T05:22:30.350Z,91857.88
2023-04-08T05:24:56.841Z,91863.38
2023-04-08T05:27:23.374Z,91860.41
2023-04-08T05:29:49.851Z,91860.41
2023-04-08T05:32:17.059Z,91866.63
2023-04-08T05:34:44.153Z,91874.34
2023-04-08T05:37:11.014Z,91870.09
2023-04-08T05:39:37.479Z,91875.06
2023-04-08T05:42:04.074Z,91872.31
2023-04-08T05:44:30.639Z,91875.81
2023-04-08T05:46:57.856Z,91881.28
2023-04-08T05:49:24.444Z,91882.75
2023-04-08T05:51:51.433Z,91882.22
2023-04-08T05:54:17.963Z,91878.75
2023-04-08T05:56:46.337Z,91882.41
2023-04-08T05:59:12.920Z,91884.97
2023-04-08T06:01:39.661Z,91888.22
2023-04-08T06:04:06.505Z,91882.03
2023-04-08T06:06:33.366Z,91892.25
2023-04-08T06:08:59.932Z,91893.72
2023-04-08T06:11:26.533Z,91891.50
2023-04-08T06:13:53.010Z,91887.84
2023-04-08T06:16:21.157Z,91893.31
2023-04-08T06:18:48.618Z,91887.09
2023-04-08T06:21:16.246Z,91894.78
2023-04-08T06:23:42.736Z,91899.75
2023-04-08T06:26:09.256Z,91885.09
2023-04-08T06:28:35.938Z,91890.59
2023-04-08T06:31:02.468Z,91896.56
2023-04-08T06:33:29.008Z,91897.31
2023-04-08T06:36:05.444Z,91900.59
2023-04-08T06:38:35.039Z,91897.13
2023-04-08T06:41:07.959Z,91889.97
2023-04-08T06:43:35.569Z,91894.00
2023-04-08T06:46:02.076Z,91899.47
2023-04-08T06:48:30.461Z,91899.47
2023-04-08T06:50:58.162Z,91898.00
2023-04-08T06:53:25.549Z,91898.00
2023-04-08T06:55:52.364Z,91903.47
2023-04-08T06:58:19.094Z,91902.72
2023-04-08T07:00:45.618Z,91902.94
2023-04-08T07:03:12.528Z,91909.16
2023-04-08T07:05:39.454Z,91904.97
2023-04-08T07:08:06.565Z,91902.94
2023-04-08T07:10:33.243Z,91902.41
2023-04-08T07:13:00.039Z,91905.34
2023-04-08T07:15:26.612Z,91898.59
2023-04-08T07:17:53.171Z,91899.88
2023-04-08T07:20:19.657Z,91900.59
2023-04-08T07:22:46.161Z,91905.34
2023-04-08T07:25:12.688Z,91906.84
2023-04-08T07:27:39.230Z,91897.31
2023-04-08T07:30:06.556Z,91902.59
2023-04-08T07:32:33.927Z,91909.38
2023-04-08T07:35:01.269Z,91903.88
2023-04-08T07:37:28.166Z,91910.44
2023-04-08T07:39:54.708Z,91910.44
2023-04-08T07:42:22.039Z,91913.19
2023-04-08T07:44:48.626Z,91907.50
2023-04-08T07:47:15.124Z,91923.94
2023-04-08T07:49:41.708Z,91921.00
2023-04-08T07:52:08.202Z,91927.75
2023-04-08T07:54:34.680Z,91927.34
2023-04-08T07:57:02.211Z,91934.69
2023-04-08T07:59:29.259Z,91929.63
2023-04-08T08:01:55.898Z,91929.34
2023-04-08T08:04:25.797Z,91927.56
2023-04-08T08:06:52.519Z,91922.06
2023-04-08T08:09:19.114Z,91926.47
2023-04-08T08:11:45.761Z,91933.09
2023-04-08T08:14:13.875Z,91937.88
2023-04-08T08:16:40.490Z,91939.31
2023-04-08T08:19:08.726Z,91942.28
2023-04-08T08:21:39.409Z,91934.03
2023-04-08T08:24:06.552Z,91943.72
2023-04-08T08:26:39.244Z,91941.00
2023-04-08T08:29:08.477Z,91939.75
2023-04-08T08:31:35.451Z,91946.69
2023-04-08T08:34:02.600Z,91941.19
2023-04-08T08:36:29.211Z,91940.66
2023-04-08T08:38:55.763Z,91942.69
2023-04-08T08:41:22.319Z,91951.13
2023-04-08T08:43:49.170Z,91948.56
2023-04-08T08:46:17.422Z,91955.53
2023-04-08T08:48:44.377Z,91946.03
2023-04-08T08:51:12.079Z,91957.75
2023-04-08T08:53:38.904Z,91953.00
2023-04-08T08:58:39.230Z,91943.91
2023-04-08T09:01:30.597Z,91947.91
2023-04-08T09:04:17.328Z,91948.97
2023-04-08T09:06:50.180Z,91948.22
2023-04-08T09:09:17.957Z,91949.44
2023-04-08T09:11:46.459Z,91954.97
2023-04-08T09:14:20.634Z,91949.69
2023-04-08T09:16:47.263Z,91950.41
2023-04-08T09:19:14.152Z,91948.53
2023-04-08T09:21:41.476Z,91947.38
2023-04-08T09:24:09.489Z,91938.31
2023-04-08T09:26:37.471Z,91939.38
2023-04-08T09:29:25.045Z,91935.78
2023-04-08T09:31:59.515Z,91932.81
2023-04-08T09:34:27.689Z,91937.25
2023-04-08T09:36:55.088Z,91930.41
2023-04-08T09:39:22.131Z,91920.19
2023-04-08T09:41:50.961Z,91918.50
2023-04-08T09:44:19.657Z,91917.13
2023-04-08T09:47:08.411Z,91920.41
2023-04-08T09:49:46.877Z,91910.91
2023-04-08T09:52:33.387Z,91906.16
2023-04-08T09:55:04.866Z,91907.28
2023-04-08T09:57:41.708Z,91909.81
2023-04-08T10:00:13.910Z,91910.25
2023-04-08T10:03:06.344Z,91901.06
2023-04-08T10:05:37.634Z,91904.75
2023-04-08T10:08:05.983Z,91908.16
2023-04-08T10:10:34.571Z,91903.47
2023-04-08T10:13:01.964Z,91889.09
2023-04-08T10:15:33.073Z,91894.88
2023-04-08T10:18:05.692Z,91893.47
2023-04-08T10:20:38.388Z,91885.84
2023-04-08T10:23:06.262Z,91880.75
2023-04-08T10:25:36.573Z,91876.41
2023-04-08T10:28:23.523Z,91871.31
2023-04-08T10:30:54.716Z,91870.22
2023-04-08T10:33:33.563Z,91867.16
2023-04-08T10:36:13.430Z,91866.06
2023-04-08T10:38:42.406Z,91869.22
2023-04-08T10:41:22.527Z,91867.41
2023-04-08T10:43:50.865Z,91861.38
2023-04-08T10:46:18.237Z,91859.56
2023-04-08T10:48:44.940Z,91852.28
2023-04-08T10:51:12.156Z,91848.25
2023-04-08T10:53:42.048Z,91842.94
2023-04-08T10:56:14.970Z,91838.94
2023-04-08T10:58:52.534Z,91839.16
2023-04-08T11:01:19.754Z,91841.91
2023-04-08T11:03:46.571Z,91843.34
2023-04-08T11:06:13.268Z,91846.09
2023-04-08T11:08:39.815Z,91845.00
2023-04-08T11:11:11.106Z,91840.81
2023-04-08T11:13:51.261Z,91846.69
2023-04-08T11:16:21.468Z,91847.41
2023-04-08T11:18:48.426Z,91837.91
2023-04-08T11:21:15.504Z,91839.38
2023-04-08T11:23:42.812Z,91850.34
2023-04-08T11:26:11.192Z,91847.06
2023-04-08T11:28:38.554Z,91846.34
2023-04-08T11:31:05.832Z,91852.56
2023-04-08T11:33:32.617Z,91843.59
2023-04-08T11:36:02.017Z,91841.56
2023-04-08T11:38:29.346Z,91843.06
2023-04-08T11:40:58.786Z,91836.81
2023-04-08T11:43:26.279Z,91837.56
2023-04-08T11:45:52.953Z,91839.03
2023-04-08T11:48:19.535Z,91840.31
2023-04-08T11:50:46.196Z,91841.78
2023-04-08T11:53:20.556Z,91839.22
2023-04-08T11:55:48.589Z,91837.97
2023-04-08T11:58:15.859Z,91846.38
2023-04-08T12:00:43.662Z,91850.59
2023-04-08T12:03:11.284Z,91843.84
2023-04-08T12:05:37.927Z,91834.34
2023-04-08T12:08:04.770Z,91838.53
2023-04-08T12:10:31.304Z,91835.03
2023-04-08T12:12:57.789Z,91840.22
2023-04-08T12:15:24.309Z,91840.22
2023-04-08T12:17:50.943Z,91834.72
2023-04-08T12:20:17.678Z,91826.28
2023-04-08T12:22:44.358Z,91829.22
2023-04-08T12:25:11.044Z,91836.19
2023-04-08T12:27:37.563Z,91832.91
2023-04-08T12:30:04.421Z,91836.38
2023-04-08T12:32:30.984Z,91833.63
2023-04-08T12:34:57.498Z,91836.38
2023-04-08T12:37:24.603Z,91840.59
2023-04-08T12:39:51.542Z,91840.59
2023-04-08T12:42:18.078Z,91829.59
2023-04-08T12:44:44.689Z,91833.09
2023-04-08T12:47:11.318Z,91831.09
2023-04-08T12:49:48.721Z,91835.28
2023-04-08T12:52:16.146Z,91834.03
2023-04-08T12:54:42.707Z,91834.03
2023-04-08T12:57:09.208Z,91831.28
2023-04-08T12:59:35.997Z,91832.53
2023-04-08T13:02:02.598Z,91834.75
2023-04-08T13:04:29.105Z,91830.00
2023-04-08T13:06:56.436Z,91832.75
2023-04-08T13:09:23.039Z,91824.50
2023-04-08T13:11:49.725Z,91822.50
2023-04-08T13:14:16.422Z,91825.97
2023-04-08T13:16:43.087Z,91827.44
2023-04-08T13:19:09.718Z,91835.69
2023-04-08T13:21:36.257Z,91831.47
2023-04-08T13:24:02.824Z,91834.19
2023-04-08T13:26:29.359Z,91838.44
2023-04-08T13:28:57.565Z,91828.72
2023-04-08T13:31:25.060Z,91836.59
2023-04-08T13:33:51.613Z,91828.53
2023-04-08T13:36:18.192Z,91840.25
2023-04-08T13:38:45.815Z,91830.00
2023-04-08T13:41:12.267Z,91835.28
2023-04-08T13:43:38.904Z,91839.53
2023-04-08T13:46:05.558Z,91832.75
2023-04-08T13:48:32.077Z,91836.59
2023-04-08T13:50:58.653Z,91845.03
2023-04-08T13:53:25.152Z,91838.03
2023-04-08T13:55:55.215Z,91837.28
2023-04-08T13:58:24.235Z,91839.31
2023-04-08T14:00:52.083Z,91840.59
2023-04-08T14:03:19.099Z,91839.31
2023-04-08T14:05:45.925Z,91845.53
2023-04-08T14:08:13.704Z,91836.59
2023-04-08T14:10:42.097Z,91838.78
2023-04-08T14:13:09.189Z,91839.53
2023-04-08T14:15:36.184Z,91840.97
2023-04-08T14:18:02.888Z,91840.97
2023-04-08T14:20:30.047Z,91846.47
2023-04-08T14:22:56.679Z,91842.28
2023-04-08T14:25:23.759Z,91854.72
2023-04-08T14:27:57.804Z,91846.47
2023-04-08T14:30:25.754Z,91852.31
2023-04-08T14:32:52.705Z,91852.50
2023-04-08T14:35:19.289Z,91854.53
2023-04-08T14:37:45.834Z,91847.75
2023-04-08T14:40:12.620Z,91840.78
2023-04-08T14:42:39.193Z,91845.03
2023-04-08T14:45:06.156Z,91849.03
2023-04-08T14:47:32.713Z,91853.25
2023-04-08T14:49:59.261Z,91847.56
2023-04-08T14:52:25.834Z,91847.56
2023-04-08T14:54:53.701Z,91857.06
2023-04-08T14:57:20.315Z,91851.56
2023-04-08T14:59:46.950Z,91862.56
2023-04-08T15:02:13.750Z,91863.66
2023-04-08T15:04:40.420Z,91858.16
2023-04-08T15:07:07.550Z,91856.16
2023-04-08T15:09:34.111Z,91861.84
2023-04-08T15:12:01.228Z,91850.13
2023-04-08T15:14:27.808Z,91867.69
2023-04-08T15:16:54.322Z,91867.47
2023-04-08T15:19:21.096Z,91875.31
2023-04-08T15:21:47.569Z,91875.31
2023-04-08T15:24:14.195Z,91876.59
2023-04-08T15:26:41.159Z,91875.88
2023-04-08T15:29:07.842Z,91873.13
2023-04-08T15:31:35.269Z,91866.88
2023-04-08T15:34:02.838Z,91879.16
2023-04-08T15:36:30.448Z,91874.19
2023-04-08T15:38:56.961Z,91882.97
2023-04-08T15:41:23.569Z,91871.97
2023-04-08T15:43:50.249Z,91878.97
2023-04-08T15:46:23.322Z,91875.31
2023-04-08T15:48:50.640Z,91876.06
2023-04-08T15:51:17.696Z,91870.38
2023-04-08T15:53:44.330Z,91882.28
2023-04-08T15:56:14.990Z,91869.09
2023-04-08T15:58:42.685Z,91876.41
2023-04-08T16:01:09.224Z,91870.91
2023-04-08T16:03:35.886Z,91872.38
2023-04-08T16:06:02.602Z,91884.81
2023-04-08T16:08:29.574Z,91883.34
2023-04-08T16:11:06.212Z,91885.91
2023-04-08T16:13:34.154Z,91880.41
2023-04-08T16:16:03.672Z,91884.44
2023-04-08T16:18:30.618Z,91888.44
2023-04-08T16:20:57.226Z,91882.97
2023-04-08T16:23:23.888Z,91890.28
2023-04-08T16:25:50.608Z,91894.28
2023-04-08T16:28:18.088Z,91903.06
2023-04-08T16:30:44.654Z,91898.31
2023-04-08T16:33:11.442Z,91900.13
2023-04-08T16:35:38.694Z,91911.09
2023-04-08T16:38:06.173Z,91912.38
2023-04-08T16:40:33.544Z,91915.66
2023-04-08T16:43:01.715Z,91923.16
2023-04-08T16:45:29.758Z,91935.44
2023-04-08T16:47:56.742Z,91924.25
2023-04-08T16:50:23.314Z,91929.00
2023-04-08T16:52:49.941Z,91933.75
2023-04-08T16:55:17.602Z,91941.78
2023-04-08T16:57:44.129Z,91938.81
2023-04-08T17:00:11.370Z,91944.13
2023-04-08T17:02:38.027Z,91943.38
2023-04-08T17:05:04.977Z,91952.38
2023-04-08T17:07:31.879Z,91957.84
2023-04-08T17:09:58.434Z,91958.91
2023-04-08T17:12:25.504Z,91972.44
2023-04-08T17:14:52.091Z,91968.22
2023-04-08T17:17:19.063Z,91968.03
2023-04-08T17:19:45.558Z,91972.75
2023-04-08T17:22:12.085Z,91974.59
2023-04-08T17:24:38.568Z,91991.97
2023-04-08T17:27:05.582Z,91995.25
2023-04-08T17:29:32.083Z,91997.78
2023-04-08T17:31:58.623Z,91991.25
2023-04-08T17:34:26.350Z,91988.66
2023-04-08T17:36:52.914Z,91983.81
2023-04-08T17:39:19.439Z,91985.25
2023-04-08T17:41:46.247Z,91994.38
2023-04-08T17:44:12.912Z,91997.59
2023-04-08T17:46:39.427Z,91997.22
2023-04-08T17:49:06.037Z,92006.50
2023-04-08T17:51:32.915Z,92010.34
2023-04-08T17:53:59.525Z,92012.13
2023-04-08T17:56:27.759Z,92019.44
2023-04-08T17:58:54.391Z,92024.72
2023-04-08T18:01:22.436Z,92020.53
2023-04-08T18:03:51.251Z,92023.78
2023-04-08T18:06:18.067Z,92030.34
2023-04-08T18:08:45.375Z,92036.59
2023-04-08T18:11:12.104Z,92035.09
2023-04-08T18:13:38.637Z,92039.34
2023-04-08T18:16:05.607Z,92036.59
2023-04-08T18:18:32.387Z,92043.88
2023-04-08T18:20:58.878Z,92046.63
2023-04-08T18:23:25.347Z,92054.09
2023-04-08T18:25:52.003Z,92044.41
2023-04-08T18:28:18.591Z,92051.19
2023-04-08T18:30:45.307Z,92049.69
2023-04-08T18:33:11.864Z,92053.72
2023-04-08T18:35:38.428Z,92057.72
2023-04-08T18:38:05.000Z,92059.22
2023-04-08T18:40:31.605Z,92064.69
2023-04-08T18:43:01.994Z,92071.66
2023-04-08T18:45:29.408Z,92067.97
2023-04-08T18:47:56.348Z,92067.22
2023-04-08T18:50:23.387Z,92075.25
2023-04-08T18:52:49.996Z,92076.00
2023-04-08T18:55:16.678Z,92082.53
2023-04-08T18:57:43.196Z,92083.28
2023-04-08T19:00:09.914Z,92086.56
2023-04-08T19:02:36.494Z,92087.31
2023-04-08T19:05:04.007Z,92089.84
2023-04-08T19:07:30.579Z,92091.09
2023-04-08T19:09:58.532Z,92090.91
2023-04-08T19:12:26.073Z,92094.16
2023-04-08T19:14:53.399Z,92108.44
2023-04-08T19:17:20.026Z,92108.44
2023-04-08T19:19:46.596Z,92110.63
2023-04-08T19:22:13.211Z,92107.34
2023-04-08T19:24:39.701Z,92114.88
2023-04-08T19:27:06.219Z,92111.38
2023-04-08T19:29:35.919Z,92115.59
2023-04-08T19:32:03.158Z,92114.88
2023-04-08T19:34:30.065Z,92119.81
2023-04-08T19:36:56.707Z,92128.59
2023-04-08T19:39:25.247Z,92127.44
2023-04-08T19:41:53.202Z,92124.47
2023-04-08T19:44:19.729Z,92133.97
2023-04-08T19:46:46.406Z,92128.72
2023-04-08T19:49:12.980Z,92128.50
2023-04-08T19:51:39.531Z,92125.75
2023-04-08T19:54:06.063Z,92129.03
2023-04-08T19:56:34.041Z,92121.34
2023-04-08T19:59:01.848Z,92127.75
2023-04-08T20:01:28.999Z,92125.53
2023-04-08T20:03:55.786Z,92132.53
2023-04-08T20:06:23.131Z,92135.06
2023-04-08T20:08:52.227Z,92139.25
2023-04-08T20:11:19.680Z,92138.00
2023-04-08T20:13:47.126Z,92142.00
2023-04-08T20:16:13.888Z,92147.50
2023-04-08T20:18:40.597Z,92140.53
2023-04-08T20:21:08.160Z,92143.06
2023-04-08T20:23:34.743Z,92139.78
2023-04-08T20:26:01.430Z,92144.53
2023-04-08T20:28:28.176Z,92152.22
2023-04-08T20:30:54.941Z,92152.97
2023-04-08T20:33:21.501Z,92148.56
2023-04-08T20:35:50.462Z,92140.84
2023-04-08T20:38:17.158Z,92148.34
2023-04-08T20:40:46.509Z,92146.88
2023-04-08T20:43:13.014Z,92151.63
2023-04-08T20:45:39.530Z,92152.16
2023-04-08T20:48:07.507Z,92157.66
2023-04-08T20:50:34.169Z,92156.16
2023-04-08T20:53:00.824Z,92156.91
2023-04-08T20:55:27.327Z,92156.16
2023-04-08T20:57:53.801Z,92156.16
2023-04-08T21:00:20.597Z,92150.66
2023-04-08T21:02:47.965Z,92156.16
2023-04-08T21:05:14.797Z,92158.69
2023-04-08T21:07:44.405Z,92157.22
2023-04-08T21:10:12.641Z,92151.72
2023-04-08T21:12:39.262Z,92152.97
2023-04-08T21:15:06.116Z,92148.25
2023-04-08T21:17:32.673Z,92155.72
2023-04-08T21:19:59.289Z,92150.97
2023-04-08T21:22:25.894Z,92150.06
2023-04-08T21:24:52.387Z,92149.84
2023-04-08T21:27:19.072Z,92159.75
2023-04-08T21:29:45.697Z,92147.31
2023-04-08T21:32:12.509Z,92152.78
2023-04-08T21:34:39.094Z,92145.81
2023-04-08T21:37:06.162Z,92149.84
2023-04-08T21:39:32.698Z,92155.31
2023-04-08T21:41:59.307Z,92151.31
2023-04-08T21:44:26.722Z,92149.09
2023-04-08T21:46:54.725Z,92157.84
2023-04-08T21:49:21.450Z,92159.31
2023-04-08T21:51:47.935Z,92160.59
2023-04-08T21:54:14.503Z,92164.59
2023-04-08T21:56:40.981Z,92159.09
2023-04-08T21:59:07.492Z,92166.63
2023-04-08T22:01:34.070Z,92161.13
2023-04-08T22:04:00.954Z,92159.63
2023-04-08T22:06:32.645Z,92167.34
2023-04-08T22:08:59.579Z,92161.84
2023-04-08T22:11:26.092Z,92168.09
2023-04-08T22:13:52.600Z,92167.34
2023-04-08T22:16:19.082Z,92164.41
2023-04-08T22:18:45.633Z,92171.34
2023-04-08T22:21:12.236Z,92174.09
2023-04-08T22:23:39.067Z,92166.94
2023-04-08T22:26:05.635Z,92171.69
2023-04-08T22:28:34.209Z,92165.66
2023-04-08T22:31:01.237Z,92172.41
2023-04-08T22:33:28.051Z,92172.41
2023-04-08T22:35:57.553Z,92172.41
2023-04-08T22:38:24.246Z,92173.13
2023-04-08T22:40:51.089Z,92176.63
2023-04-08T22:43:17.571Z,92179.91
2023-04-08T22:45:44.098Z,92180.66
2023-04-08T22:48:10.683Z,92178.63
2023-04-08T22:50:37.223Z,92182.31
2023-04-08T22:53:04.541Z,92181.56
2023-04-08T22:55:31.194Z,92178.31
2023-04-08T22:57:57.733Z,92171.56
2023-04-08T23:00:24.385Z,92177.28
2023-04-08T23:02:51.093Z,92169.03
2023-04-08T23:05:18.026Z,92171.78
2023-04-08T23:07:44.614Z,92173.78
2023-04-08T23:10:11.375Z,92171.78
2023-04-08T23:12:37.902Z,92171.78
2023-04-08T23:15:04.912Z,92166.31
2023-04-08T23:17:31.464Z,92159.53
2023-04-08T23:19:57.993Z,92167.75
2023-04-08T23:22:24.486Z,92177.28
2023-04-08T23:24:51.046Z,92168.50
2023-04-08T23:27:17.522Z,92176.00
2023-04-08T23:29:44.064Z,92180.22
2023-04-08T23:32:10.727Z,92181.69
2023-04-08T23:34:37.645Z,92169.97
2023-04-08T23:37:04.445Z,92173.25
2023-04-08T23:39:31.790Z,92178.00
2023-04-08T23:41:58.323Z,92177.28
2023-04-08T23:44:24.834Z,92185.06
2023-04-08T23:46:51.381Z,92176.84
2023-04-08T23:49:17.982Z,92182.31
2023-04-08T23:51:44.491Z,92170.59
2023-04-08T23:54:11.268Z,92176.09
2023-04-08T23:56:40.579Z,92176.84
2023-04-08T23:59:07.154Z,92172.41
